sensor_id;sensor_type;location;lat;lon;timestamp;P1;durP1;ratioP1;P2;durP2;ratioP2
39620;SDS011;25309;48.686;9.170;2022-11-15T00:00:38;4.87;;;3.60;;
39620;SDS011;25309;48.686;9.170;2022-11-15T04:00:55;3.40;;;2.47;;
39620;SDS011;25309;48.686;9.170;2022-11-15T04:03:40;3.30;;;2.53;;
39620;SDS011;25309;48.686;9.170;2022-11-15T04:10:38;3.50;;;2.50;;
39620;SDS011;25309;48.686;9.170;2022-11-15T04:13:24;3.90;;;2.10;;
39620;SDS011;25309;48.686;9.170;2022-11-15T04:16:11;4.17;;;2.50;;
39620;SDS011;25309;48.686;9.170;2022-11-15T04:18:56;2.90;;;2.10;;
39620;SDS011;25309;48.686;9.170;2022-11-15T04:22:00;4.03;;;2.37;;
39620;SDS011;25309;48.686;9.170;2022-11-15T04:25:04;3.50;;;2.50;;
39620;SDS011;25309;48.686;9.170;2022-11-15T04:27:50;3.03;;;2.40;;
39620;SDS011;25309;48.686;9.170;2022-11-15T04:30:36;4.03;;;2.50;;
39620;SDS011;25309;48.686;9.170;2022-11-15T04:33:22;4.67;;;2.30;;
39620;SDS011;25309;48.686;9.170;2022-11-15T04:36:08;3.93;;;2.40;;
39620;SDS011;25309;48.686;9.170;2022-11-15T04:39:12;3.97;;;2.40;;
39620;SDS011;25309;48.686;9.170;2022-11-15T04:41:58;3.67;;;2.37;;
39620;SDS011;25309;48.686;9.170;2022-11-15T04:44:43;4.40;;;2.63;;
39620;SDS011;25309;48.686;9.170;2022-11-15T04:47:29;3.80;;;2.60;;
39620;SDS011;25309;48.686;9.170;2022-11-15T04:50:16;4.40;;;2.60;;
39620;SDS011;25309;48.686;9.170;2022-11-15T04:53:02;3.63;;;2.30;;
39620;SDS011;25309;48.686;9.170;2022-11-15T04:55:47;4.10;;;2.20;;
39620;SDS011;25309;48.686;9.170;2022-11-15T04:58:33;3.23;;;2.27;;
39620;SDS011;25309;48.686;9.170;2022-11-15T05:01:18;3.30;;;2.10;;
39620;SDS011;25309;48.686;9.170;2022-11-15T05:04:04;3.27;;;2.33;;
39620;SDS011;25309;48.686;9.170;2022-11-15T05:07:06;4.80;;;2.30;;
39620;SDS011;25309;48.686;9.170;2022-11-15T05:09:52;4.90;;;2.67;;
39620;SDS011;25309;48.686;9.170;2022-11-15T05:12:37;3.23;;;2.30;;
39620;SDS011;25309;48.686;9.170;2022-11-15T05:15:23;4.63;;;2.40;;
39620;SDS011;25309;48.686;9.170;2022-11-15T05:18:08;4.30;;;2.40;;
39620;SDS011;25309;48.686;9.170;2022-11-15T05:20:54;4.50;;;2.20;;
39620;SDS011;25309;48.686;9.170;2022-11-15T05:23:41;3.80;;;2.30;;
39620;SDS011;25309;48.686;9.170;2022-11-15T05:26:26;5.30;;;2.30;;
39620;SDS011;25309;48.686;9.170;2022-11-15T05:29:12;3.33;;;2.30;;
39620;SDS011;25309;48.686;9.170;2022-11-15T05:31:58;3.17;;;2.30;;
39620;SDS011;25309;48.686;9.170;2022-11-15T05:34:44;3.73;;;2.13;;
39620;SDS011;25309;48.686;9.170;2022-11-15T05:37:30;5.03;;;2.50;;
39620;SDS011;25309;48.686;9.170;2022-11-15T05:40:17;3.63;;;2.20;;
39620;SDS011;25309;48.686;9.170;2022-11-15T05:43:03;4.87;;;2.10;;
39620;SDS011;25309;48.686;9.170;2022-11-15T05:45:49;3.80;;;2.10;;
39620;SDS011;25309;48.686;9.170;2022-11-15T05:48:35;4.13;;;2.50;;
39620;SDS011;25309;48.686;9.170;2022-11-15T05:51:22;4.00;;;2.57;;
39620;SDS011;25309;48.686;9.170;2022-11-15T05:54:08;4.33;;;2.37;;
39620;SDS011;25309;48.686;9.170;2022-11-15T05:56:57;4.50;;;2.70;;
39620;SDS011;25309;48.686;9.170;2022-11-15T05:59:42;4.90;;;2.80;;
39620;SDS011;25309;48.686;9.170;2022-11-15T06:02:28;4.80;;;2.40;;
39620;SDS011;25309;48.686;9.170;2022-11-15T06:05:13;4.67;;;2.40;;
39620;SDS011;25309;48.686;9.170;2022-11-15T06:07:59;4.73;;;2.70;;
39620;SDS011;25309;48.686;9.170;2022-11-15T06:10:45;4.17;;;2.77;;
39620;SDS011;25309;48.686;9.170;2022-11-15T06:13:32;5.60;;;2.93;;
39620;SDS011;25309;48.686;9.170;2022-11-15T06:16:18;3.73;;;2.50;;
39620;SDS011;25309;48.686;9.170;2022-11-15T06:19:05;4.23;;;2.73;;
39620;SDS011;25309;48.686;9.170;2022-11-15T06:21:51;4.50;;;2.77;;
39620;SDS011;25309;48.686;9.170;2022-11-15T06:24:36;4.70;;;3.07;;
39620;SDS011;25309;48.686;9.170;2022-11-15T06:27:22;5.13;;;2.93;;
39620;SDS011;25309;48.686;9.170;2022-11-15T06:30:09;5.50;;;2.80;;
39620;SDS011;25309;48.686;9.170;2022-11-15T06:32:59;5.23;;;2.80;;
39620;SDS011;25309;48.686;9.170;2022-11-15T06:35:45;5.57;;;3.50;;
39620;SDS011;25309;48.686;9.170;2022-11-15T06:38:31;4.50;;;3.40;;
39620;SDS011;25309;48.686;9.170;2022-11-15T06:41:16;6.57;;;3.50;;
39620;SDS011;25309;48.686;9.170;2022-11-15T06:44:02;9.93;;;3.63;;
39620;SDS011;25309;48.686;9.170;2022-11-15T06:46:50;5.00;;;3.10;;
39620;SDS011;25309;48.686;9.170;2022-11-15T06:49:35;3.83;;;3.20;;
39620;SDS011;25309;48.686;9.170;2022-11-15T06:52:21;4.90;;;3.40;;
39620;SDS011;25309;48.686;9.170;2022-11-15T06:55:07;4.80;;;3.20;;
39620;SDS011;25309;48.686;9.170;2022-11-15T06:57:54;5.63;;;3.30;;
39620;SDS011;25309;48.686;9.170;2022-11-15T07:00:39;6.17;;;3.40;;
39620;SDS011;25309;48.686;9.170;2022-11-15T07:03:26;6.33;;;4.20;;
39620;SDS011;25309;48.686;9.170;2022-11-15T07:06:12;6.30;;;4.40;;
39620;SDS011;25309;48.686;9.170;2022-11-15T07:08:57;6.83;;;4.20;;
39620;SDS011;25309;48.686;9.170;2022-11-15T07:11:43;8.40;;;4.40;;
39620;SDS011;25309;48.686;9.170;2022-11-15T07:14:28;8.40;;;4.53;;
39620;SDS011;25309;48.686;9.170;2022-11-15T07:17:14;7.07;;;4.37;;
39620;SDS011;25309;48.686;9.170;2022-11-15T07:20:01;9.00;;;4.30;;
39620;SDS011;25309;48.686;9.170;2022-11-15T07:22:47;9.17;;;4.53;;
39620;SDS011;25309;48.686;9.170;2022-11-15T07:25:32;7.43;;;4.80;;
39620;SDS011;25309;48.686;9.170;2022-11-15T07:28:19;8.80;;;5.40;;
39620;SDS011;25309;48.686;9.170;2022-11-15T07:31:05;10.93;;;6.30;;
39620;SDS011;25309;48.686;9.170;2022-11-15T07:33:51;15.57;;;8.57;;
39620;SDS011;25309;48.686;9.170;2022-11-15T07:36:38;18.67;;;9.37;;
39620;SDS011;25309;48.686;9.170;2022-11-15T07:39:24;22.70;;;9.80;;
39620;SDS011;25309;48.686;9.170;2022-11-15T07:42:09;20.27;;;10.73;;
39620;SDS011;25309;48.686;9.170;2022-11-15T07:45:13;26.17;;;12.80;;
39620;SDS011;25309;48.686;9.170;2022-11-15T07:47:59;23.23;;;11.97;;
39620;SDS011;25309;48.686;9.170;2022-11-15T07:50:45;24.73;;;12.00;;
39620;SDS011;25309;48.686;9.170;2022-11-15T07:53:32;27.10;;;13.37;;
39620;SDS011;25309;48.686;9.170;2022-11-15T07:56:19;26.93;;;11.00;;
39620;SDS011;25309;48.686;9.170;2022-11-15T07:59:05;21.57;;;11.30;;
39620;SDS011;25309;48.686;9.170;2022-11-15T08:01:51;17.30;;;8.77;;
39620;SDS011;25309;48.686;9.170;2022-11-15T08:04:36;16.97;;;8.13;;
39620;SDS011;25309;48.686;9.170;2022-11-15T08:07:22;9.70;;;6.10;;
39620;SDS011;25309;48.686;9.170;2022-11-15T08:10:09;12.07;;;5.83;;
39620;SDS011;25309;48.686;9.170;2022-11-15T08:12:57;12.10;;;6.00;;
39620;SDS011;25309;48.686;9.170;2022-11-15T08:15:43;11.10;;;6.20;;
39620;SDS011;25309;48.686;9.170;2022-11-15T08:18:29;12.50;;;6.00;;
39620;SDS011;25309;48.686;9.170;2022-11-15T08:21:19;7.23;;;4.90;;
39620;SDS011;25309;48.686;9.170;2022-11-15T08:24:08;7.20;;;3.93;;
39620;SDS011;25309;48.686;9.170;2022-11-15T08:26:56;7.83;;;4.20;;
39620;SDS011;25309;48.686;9.170;2022-11-15T08:29:42;5.77;;;3.63;;
39620;SDS011;25309;48.686;9.170;2022-11-15T08:32:28;5.60;;;3.40;;
39620;SDS011;25309;48.686;9.170;2022-11-15T08:35:14;6.07;;;3.60;;
39620;SDS011;25309;48.686;9.170;2022-11-15T08:38:00;5.53;;;3.53;;
39620;SDS011;25309;48.686;9.170;2022-11-15T08:40:46;4.60;;;3.10;;
39620;SDS011;25309;48.686;9.170;2022-11-15T08:43:33;4.87;;;2.80;;
39620;SDS011;25309;48.686;9.170;2022-11-15T08:46:19;4.33;;;3.00;;
39620;SDS011;25309;48.686;9.170;2022-11-15T08:49:05;4.00;;;2.57;;
39620;SDS011;25309;48.686;9.170;2022-11-15T08:51:51;4.70;;;2.97;;
39620;SDS011;25309;48.686;9.170;2022-11-15T08:54:36;4.33;;;2.80;;
39620;SDS011;25309;48.686;9.170;2022-11-15T08:57:22;4.80;;;2.57;;
39620;SDS011;25309;48.686;9.170;2022-11-15T09:00:09;3.83;;;2.40;;
39620;SDS011;25309;48.686;9.170;2022-11-15T09:02:56;3.73;;;2.13;;
39620;SDS011;25309;48.686;9.170;2022-11-15T09:05:42;4.40;;;2.40;;
39620;SDS011;25309;48.686;9.170;2022-11-15T09:08:29;4.57;;;2.63;;
39620;SDS011;25309;48.686;9.170;2022-11-15T09:11:31;7.30;;;3.03;;
39620;SDS011;25309;48.686;9.170;2022-11-15T09:14:17;4.67;;;2.83;;
39620;SDS011;25309;48.686;9.170;2022-11-15T09:17:06;4.73;;;3.17;;
39620;SDS011;25309;48.686;9.170;2022-11-15T09:19:52;4.73;;;3.00;;
39620;SDS011;25309;48.686;9.170;2022-11-15T09:22:37;5.53;;;3.33;;
39620;SDS011;25309;48.686;9.170;2022-11-15T09:25:23;5.00;;;3.60;;
39620;SDS011;25309;48.686;9.170;2022-11-15T09:28:09;8.53;;;3.57;;
39620;SDS011;25309;48.686;9.170;2022-11-15T09:30:55;5.37;;;3.30;;
39620;SDS011;25309;48.686;9.170;2022-11-15T09:33:44;4.60;;;3.20;;
39620;SDS011;25309;48.686;9.170;2022-11-15T09:36:30;7.90;;;3.30;;
39620;SDS011;25309;48.686;9.170;2022-11-15T09:39:16;4.83;;;3.03;;
39620;SDS011;25309;48.686;9.170;2022-11-15T09:42:08;5.57;;;3.40;;
39620;SDS011;25309;48.686;9.170;2022-11-15T09:45:11;6.73;;;3.83;;
39620;SDS011;25309;48.686;9.170;2022-11-15T09:48:22;6.40;;;3.33;;
39620;SDS011;25309;48.686;9.170;2022-11-15T09:51:21;5.40;;;3.20;;
39620;SDS011;25309;48.686;9.170;2022-11-15T09:53:54;3.87;;;2.67;;
39620;SDS011;25309;48.686;9.170;2022-11-15T09:56:49;5.30;;;2.93;;
39620;SDS011;25309;48.686;9.170;2022-11-15T09:59:21;5.73;;;3.00;;
39620;SDS011;25309;48.686;9.170;2022-11-15T10:02:09;4.93;;;2.90;;
39620;SDS011;25309;48.686;9.170;2022-11-15T10:04:46;4.70;;;2.60;;
39620;SDS011;25309;48.686;9.170;2022-11-15T10:07:16;4.73;;;2.97;;
39620;SDS011;25309;48.686;9.170;2022-11-15T10:09:50;4.73;;;3.00;;
39620;SDS011;25309;48.686;9.170;2022-11-15T10:12:19;5.53;;;3.10;;
39620;SDS011;25309;48.686;9.170;2022-11-15T10:14:46;5.37;;;3.10;;
39620;SDS011;25309;48.686;9.170;2022-11-15T10:17:33;5.20;;;3.40;;
39620;SDS011;25309;48.686;9.170;2022-11-15T10:20:13;4.87;;;3.60;;
39620;SDS011;25309;48.686;9.170;2022-11-15T10:22:48;5.37;;;3.30;;
39620;SDS011;25309;48.686;9.170;2022-11-15T10:25:18;6.67;;;3.57;;
39620;SDS011;25309;48.686;9.170;2022-11-15T10:27:50;7.50;;;3.00;;
39620;SDS011;25309;48.686;9.170;2022-11-15T10:30:22;4.27;;;2.90;;
39620;SDS011;25309;48.686;9.170;2022-11-15T10:32:50;6.20;;;3.30;;
39620;SDS011;25309;48.686;9.170;2022-11-15T10:35:21;3.60;;;2.70;;
39620;SDS011;25309;48.686;9.170;2022-11-15T10:37:51;6.27;;;3.07;;
39620;SDS011;25309;48.686;9.170;2022-11-15T10:40:30;4.77;;;3.00;;
39620;SDS011;25309;48.686;9.170;2022-11-15T10:43:03;3.87;;;2.80;;
39620;SDS011;25309;48.686;9.170;2022-11-15T10:45:32;5.97;;;3.30;;
39620;SDS011;25309;48.686;9.170;2022-11-15T10:48:23;5.30;;;3.17;;
39620;SDS011;25309;48.686;9.170;2022-11-15T10:50:51;7.63;;;2.90;;
39620;SDS011;25309;48.686;9.170;2022-11-15T10:53:22;4.70;;;3.43;;
39620;SDS011;25309;48.686;9.170;2022-11-15T10:55:53;9.30;;;4.00;;
39620;SDS011;25309;48.686;9.170;2022-11-15T10:58:27;8.13;;;4.00;;
39620;SDS011;25309;48.686;9.170;2022-11-15T11:03:57;6.53;;;3.40;;
39620;SDS011;25309;48.686;9.170;2022-11-15T11:06:26;5.90;;;3.40;;
39620;SDS011;25309;48.686;9.170;2022-11-15T11:08:55;5.33;;;3.60;;
39620;SDS011;25309;48.686;9.170;2022-11-15T11:11:24;5.43;;;3.40;;
39620;SDS011;25309;48.686;9.170;2022-11-15T11:13:51;4.07;;;3.23;;
39620;SDS011;25309;48.686;9.170;2022-11-15T11:16:20;4.80;;;3.57;;
39620;SDS011;25309;48.686;9.170;2022-11-15T11:19:05;5.57;;;3.30;;
39620;SDS011;25309;48.686;9.170;2022-11-15T11:21:43;3.30;;;2.00;;
39620;SDS011;25309;48.686;9.170;2022-11-15T11:24:21;3.60;;;2.00;;
39620;SDS011;25309;48.686;9.170;2022-11-15T11:26:59;3.80;;;1.70;;
39620;SDS011;25309;48.686;9.170;2022-11-15T11:29:38;3.40;;;1.80;;
39620;SDS011;25309;48.686;9.170;2022-11-15T11:32:21;3.63;;;1.80;;
39620;SDS011;25309;48.686;9.170;2022-11-15T11:34:58;2.70;;;1.50;;
39620;SDS011;25309;48.686;9.170;2022-11-15T11:37:34;3.13;;;1.90;;
39620;SDS011;25309;48.686;9.170;2022-11-15T11:40:12;4.27;;;1.73;;
39620;SDS011;25309;48.686;9.170;2022-11-15T11:42:47;3.23;;;1.53;;
39620;SDS011;25309;48.686;9.170;2022-11-15T11:45:27;2.17;;;1.30;;
39620;SDS011;25309;48.686;9.170;2022-11-15T11:48:20;3.93;;;1.80;;
39620;SDS011;25309;48.686;9.170;2022-11-15T11:50:57;2.57;;;1.80;;
39620;SDS011;25309;48.686;9.170;2022-11-15T11:53:29;1.93;;;1.47;;
39620;SDS011;25309;48.686;9.170;2022-11-15T11:56:07;2.80;;;1.50;;
39620;SDS011;25309;48.686;9.170;2022-11-15T11:58:42;1.90;;;1.30;;
39620;SDS011;25309;48.686;9.170;2022-11-15T12:01:12;2.30;;;1.37;;
39620;SDS011;25309;48.686;9.170;2022-11-15T12:03:44;1.67;;;1.33;;
39620;SDS011;25309;48.686;9.170;2022-11-15T12:06:21;2.43;;;1.60;;
39620;SDS011;25309;48.686;9.170;2022-11-15T12:08:53;3.70;;;1.40;;
39620;SDS011;25309;48.686;9.170;2022-11-15T12:11:30;1.53;;;1.20;;
39620;SDS011;25309;48.686;9.170;2022-11-15T12:14:04;2.30;;;1.50;;
39620;SDS011;25309;48.686;9.170;2022-11-15T12:16:42;2.50;;;1.37;;
39620;SDS011;25309;48.686;9.170;2022-11-15T12:19:09;2.30;;;1.27;;
39620;SDS011;25309;48.686;9.170;2022-11-15T12:21:39;2.63;;;1.20;;
39620;SDS011;25309;48.686;9.170;2022-11-15T12:24:12;2.27;;;1.37;;
39620;SDS011;25309;48.686;9.170;2022-11-15T12:26:45;1.23;;;1.13;;
39620;SDS011;25309;48.686;9.170;2022-11-15T12:29:16;2.27;;;1.20;;
39620;SDS011;25309;48.686;9.170;2022-11-15T12:31:50;3.13;;;1.37;;
39620;SDS011;25309;48.686;9.170;2022-11-15T12:34:39;1.80;;;1.23;;
39620;SDS011;25309;48.686;9.170;2022-11-15T12:43:03;3.57;;;2.30;;
39620;SDS011;25309;48.686;9.170;2022-11-15T12:45:52;5.63;;;2.40;;
39620;SDS011;25309;48.686;9.170;2022-11-15T12:54:49;6.20;;;2.90;;
39620;SDS011;25309;48.686;9.170;2022-11-15T12:57:27;3.70;;;2.80;;
39620;SDS011;25309;48.686;9.170;2022-11-15T13:00:04;5.83;;;2.97;;
39620;SDS011;25309;48.686;9.170;2022-11-15T13:02:51;9.20;;;3.23;;
39620;SDS011;25309;48.686;9.170;2022-11-15T13:05:53;6.80;;;4.23;;
39620;SDS011;25309;48.686;9.170;2022-11-15T13:17:22;8.07;;;4.87;;
39620;SDS011;25309;48.686;9.170;2022-11-15T13:19:59;8.70;;;4.73;;
39620;SDS011;25309;48.686;9.170;2022-11-15T13:22:37;8.50;;;5.00;;
39620;SDS011;25309;48.686;9.170;2022-11-15T13:25:19;7.37;;;4.50;;
39620;SDS011;25309;48.686;9.170;2022-11-15T13:27:58;7.63;;;4.60;;
39620;SDS011;25309;48.686;9.170;2022-11-15T13:30:33;8.07;;;4.73;;
39620;SDS011;25309;48.686;9.170;2022-11-15T13:33:07;7.20;;;4.10;;
39620;SDS011;25309;48.686;9.170;2022-11-15T13:35:38;11.37;;;4.90;;
39620;SDS011;25309;48.686;9.170;2022-11-15T13:38:11;6.50;;;4.27;;
39620;SDS011;25309;48.686;9.170;2022-11-15T13:40:44;6.33;;;4.30;;
39620;SDS011;25309;48.686;9.170;2022-11-15T13:43:19;6.03;;;4.10;;
39620;SDS011;25309;48.686;9.170;2022-11-15T13:46:05;7.80;;;4.27;;
39620;SDS011;25309;48.686;9.170;2022-11-15T13:48:35;9.83;;;4.50;;
39620;SDS011;25309;48.686;9.170;2022-11-15T13:51:04;7.57;;;5.10;;
39620;SDS011;25309;48.686;9.170;2022-11-15T13:53:33;8.30;;;5.13;;
39620;SDS011;25309;48.686;9.170;2022-11-15T13:56:04;11.10;;;8.83;;
39620;SDS011;25309;48.686;9.170;2022-11-15T13:58:32;19.33;;;13.33;;
39620;SDS011;25309;48.686;9.170;2022-11-15T14:01:00;34.43;;;27.83;;
39620;SDS011;25309;48.686;9.170;2022-11-15T14:03:29;11.87;;;7.07;;
39620;SDS011;25309;48.686;9.170;2022-11-15T14:06:09;5.60;;;4.20;;
39620;SDS011;25309;48.686;9.170;2022-11-15T14:08:41;6.07;;;2.97;;
39620;SDS011;25309;48.686;9.170;2022-11-15T14:11:24;4.90;;;2.90;;
39620;SDS011;25309;48.686;9.170;2022-11-15T14:13:59;4.23;;;2.87;;
39620;SDS011;25309;48.686;9.170;2022-11-15T14:16:35;5.93;;;2.80;;
39620;SDS011;25309;48.686;9.170;2022-11-15T14:19:03;4.87;;;2.70;;
39620;SDS011;25309;48.686;9.170;2022-11-15T14:21:33;4.23;;;2.90;;
39620;SDS011;25309;48.686;9.170;2022-11-15T14:24:15;5.10;;;2.80;;
39620;SDS011;25309;48.686;9.170;2022-11-15T14:26:43;7.03;;;3.13;;
39620;SDS011;25309;48.686;9.170;2022-11-15T14:29:22;5.83;;;3.30;;
39620;SDS011;25309;48.686;9.170;2022-11-15T14:31:50;7.43;;;3.73;;
39620;SDS011;25309;48.686;9.170;2022-11-15T14:34:16;5.83;;;4.30;;
39620;SDS011;25309;48.686;9.170;2022-11-15T14:36:45;6.80;;;4.40;;
39620;SDS011;25309;48.686;9.170;2022-11-15T14:39:12;6.30;;;4.30;;
39620;SDS011;25309;48.686;9.170;2022-11-15T14:41:39;6.37;;;4.57;;
39620;SDS011;25309;48.686;9.170;2022-11-15T14:44:06;8.00;;;4.47;;
39620;SDS011;25309;48.686;9.170;2022-11-15T14:46:37;6.87;;;4.50;;
39620;SDS011;25309;48.686;9.170;2022-11-15T14:49:03;7.07;;;4.33;;
39620;SDS011;25309;48.686;9.170;2022-11-15T14:51:32;8.13;;;4.87;;
39620;SDS011;25309;48.686;9.170;2022-11-15T14:54:00;8.50;;;4.53;;
39620;SDS011;25309;48.686;9.170;2022-11-15T14:56:27;6.93;;;4.50;;
39620;SDS011;25309;48.686;9.170;2022-11-15T14:58:54;6.47;;;4.53;;
39620;SDS011;25309;48.686;9.170;2022-11-15T15:01:23;7.43;;;4.47;;
39620;SDS011;25309;48.686;9.170;2022-11-15T15:03:51;7.13;;;4.67;;
39620;SDS011;25309;48.686;9.170;2022-11-15T15:06:20;6.03;;;4.10;;
39620;SDS011;25309;48.686;9.170;2022-11-15T15:08:47;6.00;;;4.03;;
39620;SDS011;25309;48.686;9.170;2022-11-15T15:11:18;7.03;;;4.50;;
39620;SDS011;25309;48.686;9.170;2022-11-15T15:13:49;7.77;;;4.70;;
39620;SDS011;25309;48.686;9.170;2022-11-15T15:16:16;8.90;;;4.50;;
39620;SDS011;25309;48.686;9.170;2022-11-15T15:18:43;11.23;;;5.33;;
39620;SDS011;25309;48.686;9.170;2022-11-15T15:21:15;7.47;;;4.77;;
39620;SDS011;25309;48.686;9.170;2022-11-15T15:23:46;7.80;;;4.80;;
39620;SDS011;25309;48.686;9.170;2022-11-15T15:26:13;6.43;;;4.63;;
39620;SDS011;25309;48.686;9.170;2022-11-15T15:28:42;7.80;;;4.50;;
39620;SDS011;25309;48.686;9.170;2022-11-15T15:31:09;8.53;;;4.77;;
39620;SDS011;25309;48.686;9.170;2022-11-15T15:33:36;6.83;;;4.67;;
39620;SDS011;25309;48.686;9.170;2022-11-15T15:36:04;7.73;;;4.80;;
39620;SDS011;25309;48.686;9.170;2022-11-15T15:38:31;8.50;;;5.03;;
39620;SDS011;25309;48.686;9.170;2022-11-15T15:40:58;8.97;;;4.97;;
39620;SDS011;25309;48.686;9.170;2022-11-15T15:43:28;7.03;;;4.53;;
39620;SDS011;25309;48.686;9.170;2022-11-15T15:45:56;7.37;;;4.57;;
39620;SDS011;25309;48.686;9.170;2022-11-15T15:48:23;7.30;;;4.53;;
39620;SDS011;25309;48.686;9.170;2022-11-15T15:50:50;8.40;;;5.10;;
39620;SDS011;25309;48.686;9.170;2022-11-15T15:53:17;8.27;;;4.40;;
39620;SDS011;25309;48.686;9.170;2022-11-15T15:55:44;6.00;;;4.43;;
39620;SDS011;25309;48.686;9.170;2022-11-15T15:58:11;7.23;;;4.53;;
39620;SDS011;25309;48.686;9.170;2022-11-15T16:00:38;6.83;;;4.80;;
39620;SDS011;25309;48.686;9.170;2022-11-15T16:03:06;7.70;;;4.63;;
39620;SDS011;25309;48.686;9.170;2022-11-15T16:05:33;7.40;;;4.73;;
39620;SDS011;25309;48.686;9.170;2022-11-15T16:08:00;7.20;;;5.47;;
39620;SDS011;25309;48.686;9.170;2022-11-15T16:10:27;8.87;;;5.70;;
39620;SDS011;25309;48.686;9.170;2022-11-15T16:12:57;9.87;;;6.00;;
39620;SDS011;25309;48.686;9.170;2022-11-15T16:15:25;6.77;;;5.40;;
39620;SDS011;25309;48.686;9.170;2022-11-15T16:17:53;7.13;;;5.40;;
39620;SDS011;25309;48.686;9.170;2022-11-15T16:20:26;7.30;;;5.10;;
39620;SDS011;25309;48.686;9.170;2022-11-15T16:22:57;7.43;;;5.10;;
39620;SDS011;25309;48.686;9.170;2022-11-15T16:25:33;10.20;;;5.67;;
39620;SDS011;25309;48.686;9.170;2022-11-15T16:28:04;9.00;;;5.57;;
39620;SDS011;25309;48.686;9.170;2022-11-15T16:30:30;8.73;;;5.60;;
39620;SDS011;25309;48.686;9.170;2022-11-15T16:32:57;8.43;;;5.63;;
39620;SDS011;25309;48.686;9.170;2022-11-15T16:35:26;9.03;;;6.03;;
39620;SDS011;25309;48.686;9.170;2022-11-15T16:37:53;8.10;;;5.93;;
39620;SDS011;25309;48.686;9.170;2022-11-15T16:40:23;10.47;;;6.57;;
39620;SDS011;25309;48.686;9.170;2022-11-15T16:42:53;8.73;;;5.80;;
39620;SDS011;25309;48.686;9.170;2022-11-15T16:45:21;8.57;;;6.83;;
39620;SDS011;25309;48.686;9.170;2022-11-15T16:47:49;11.63;;;6.70;;
39620;SDS011;25309;48.686;9.170;2022-11-15T16:50:20;9.87;;;6.50;;
39620;SDS011;25309;48.686;9.170;2022-11-15T16:52:54;10.53;;;6.50;;
39620;SDS011;25309;48.686;9.170;2022-11-15T16:55:26;10.53;;;6.93;;
39620;SDS011;25309;48.686;9.170;2022-11-15T16:57:55;13.37;;;7.37;;
39620;SDS011;25309;48.686;9.170;2022-11-15T17:00:31;14.20;;;10.23;;
39620;SDS011;25309;48.686;9.170;2022-11-15T17:02:59;13.03;;;9.80;;
39620;SDS011;25309;48.686;9.170;2022-11-15T17:05:26;11.17;;;7.37;;
39620;SDS011;25309;48.686;9.170;2022-11-15T17:07:54;10.83;;;7.10;;
39620;SDS011;25309;48.686;9.170;2022-11-15T17:10:22;10.13;;;7.13;;
39620;SDS011;25309;48.686;9.170;2022-11-15T17:12:50;9.50;;;7.67;;
39620;SDS011;25309;48.686;9.170;2022-11-15T17:15:17;11.83;;;7.10;;
39620;SDS011;25309;48.686;9.170;2022-11-15T17:17:45;10.57;;;6.20;;
39620;SDS011;25309;48.686;9.170;2022-11-15T17:20:18;10.53;;;6.33;;
39620;SDS011;25309;48.686;9.170;2022-11-15T17:22:46;9.10;;;6.27;;
39620;SDS011;25309;48.686;9.170;2022-11-15T17:25:15;7.60;;;5.87;;
39620;SDS011;25309;48.686;9.170;2022-11-15T17:27:42;7.53;;;5.90;;
39620;SDS011;25309;48.686;9.170;2022-11-15T17:30:10;9.50;;;6.00;;
39620;SDS011;25309;48.686;9.170;2022-11-15T17:32:38;15.67;;;6.60;;
39620;SDS011;25309;48.686;9.170;2022-11-15T17:35:05;12.30;;;6.10;;
39620;SDS011;25309;48.686;9.170;2022-11-15T17:37:40;8.73;;;6.63;;
39620;SDS011;25309;48.686;9.170;2022-11-15T17:40:08;9.73;;;6.57;;
39620;SDS011;25309;48.686;9.170;2022-11-15T17:42:38;10.87;;;7.23;;
39620;SDS011;25309;48.686;9.170;2022-11-15T17:45:06;10.87;;;7.43;;
39620;SDS011;25309;48.686;9.170;2022-11-15T17:47:35;9.47;;;6.77;;
39620;SDS011;25309;48.686;9.170;2022-11-15T17:50:03;8.83;;;6.10;;
39620;SDS011;25309;48.686;9.170;2022-11-15T17:52:30;12.53;;;6.90;;
39620;SDS011;25309;48.686;9.170;2022-11-15T17:54:57;10.97;;;7.20;;
39620;SDS011;25309;48.686;9.170;2022-11-15T17:57:24;11.53;;;7.30;;
39620;SDS011;25309;48.686;9.170;2022-11-15T17:59:53;9.37;;;7.27;;
39620;SDS011;25309;48.686;9.170;2022-11-15T18:02:20;8.73;;;6.87;;
39620;SDS011;25309;48.686;9.170;2022-11-15T18:04:47;11.10;;;7.13;;
39620;SDS011;25309;48.686;9.170;2022-11-15T18:07:14;10.93;;;7.57;;
39620;SDS011;25309;48.686;9.170;2022-11-15T18:09:41;9.57;;;7.03;;
39620;SDS011;25309;48.686;9.170;2022-11-15T18:12:09;9.63;;;7.20;;
39620;SDS011;25309;48.686;9.170;2022-11-15T18:14:37;9.77;;;6.97;;
39620;SDS011;25309;48.686;9.170;2022-11-15T18:17:05;9.60;;;7.33;;
39620;SDS011;25309;48.686;9.170;2022-11-15T18:19:32;11.03;;;7.20;;
39620;SDS011;25309;48.686;9.170;2022-11-15T18:21:59;10.63;;;8.33;;
39620;SDS011;25309;48.686;9.170;2022-11-15T18:24:30;12.33;;;7.17;;
39620;SDS011;25309;48.686;9.170;2022-11-15T18:26:59;10.20;;;6.93;;
39620;SDS011;25309;48.686;9.170;2022-11-15T18:29:27;10.77;;;8.50;;
39620;SDS011;25309;48.686;9.170;2022-11-15T18:31:54;10.37;;;7.57;;
39620;SDS011;25309;48.686;9.170;2022-11-15T18:34:23;8.83;;;7.20;;
39620;SDS011;25309;48.686;9.170;2022-11-15T18:36:52;10.63;;;8.03;;
39620;SDS011;25309;48.686;9.170;2022-11-15T18:39:19;12.67;;;7.70;;
39620;SDS011;25309;48.686;9.170;2022-11-15T18:41:46;10.83;;;7.10;;
39620;SDS011;25309;48.686;9.170;2022-11-15T18:44:14;7.50;;;5.97;;
39620;SDS011;25309;48.686;9.170;2022-11-15T18:46:41;8.37;;;6.40;;
39620;SDS011;25309;48.686;9.170;2022-11-15T18:49:10;9.10;;;6.10;;
39620;SDS011;25309;48.686;9.170;2022-11-15T18:51:42;7.07;;;5.10;;
39620;SDS011;25309;48.686;9.170;2022-11-15T18:54:11;5.80;;;4.43;;
39620;SDS011;25309;48.686;9.170;2022-11-15T18:56:38;6.80;;;3.97;;
39620;SDS011;25309;48.686;9.170;2022-11-15T18:59:05;4.90;;;3.40;;
39620;SDS011;25309;48.686;9.170;2022-11-15T19:01:34;5.57;;;3.40;;
39620;SDS011;25309;48.686;9.170;2022-11-15T19:04:04;4.53;;;3.17;;
39620;SDS011;25309;48.686;9.170;2022-11-15T19:06:35;5.93;;;3.33;;
39620;SDS011;25309;48.686;9.170;2022-11-15T19:09:05;4.23;;;3.07;;
39620;SDS011;25309;48.686;9.170;2022-11-15T19:11:33;4.50;;;3.00;;
39620;SDS011;25309;48.686;9.170;2022-11-15T19:14:02;4.53;;;3.20;;
39620;SDS011;25309;48.686;9.170;2022-11-15T19:16:31;4.90;;;3.53;;
39620;SDS011;25309;48.686;9.170;2022-11-15T19:19:00;5.67;;;3.97;;
39620;SDS011;25309;48.686;9.170;2022-11-15T19:21:30;5.40;;;3.80;;
39620;SDS011;25309;48.686;9.170;2022-11-15T19:23:57;5.67;;;3.57;;
39620;SDS011;25309;48.686;9.170;2022-11-15T19:26:26;4.70;;;3.30;;
39620;SDS011;25309;48.686;9.170;2022-11-15T19:28:55;5.23;;;4.07;;
39620;SDS011;25309;48.686;9.170;2022-11-15T19:31:23;4.83;;;3.67;;
39620;SDS011;25309;48.686;9.170;2022-11-15T19:33:51;4.90;;;3.67;;
39620;SDS011;25309;48.686;9.170;2022-11-15T19:36:20;6.10;;;3.87;;
39620;SDS011;25309;48.686;9.170;2022-11-15T19:38:48;5.77;;;4.67;;
39620;SDS011;25309;48.686;9.170;2022-11-15T19:41:15;5.30;;;4.43;;
39620;SDS011;25309;48.686;9.170;2022-11-15T19:43:45;6.33;;;4.30;;
39620;SDS011;25309;48.686;9.170;2022-11-15T19:46:19;5.87;;;4.77;;
39620;SDS011;25309;48.686;9.170;2022-11-15T19:48:49;5.97;;;4.47;;
39620;SDS011;25309;48.686;9.170;2022-11-15T19:51:17;5.43;;;4.23;;
39620;SDS011;25309;48.686;9.170;2022-11-15T19:53:47;5.40;;;4.07;;
39620;SDS011;25309;48.686;9.170;2022-11-15T19:56:15;4.00;;;3.00;;
39620;SDS011;25309;48.686;9.170;2022-11-15T19:58:44;4.00;;;2.67;;
39620;SDS011;25309;48.686;9.170;2022-11-15T20:01:13;3.60;;;2.60;;
39620;SDS011;25309;48.686;9.170;2022-11-15T20:03:43;3.43;;;2.23;;
39620;SDS011;25309;48.686;9.170;2022-11-15T20:06:12;2.63;;;2.37;;
39620;SDS011;25309;48.686;9.170;2022-11-15T20:08:44;3.57;;;2.40;;